createdAt,value
2018-02-08T00:00:30.615Z,81.25
2018-02-08T00:02:58.062Z,81.70
2018-02-08T00:05:25.554Z,81.69
2018-02-08T00:07:53.013Z,82.10
2018-02-08T00:10:20.458Z,82.00
2018-02-08T00:12:47.922Z,81.76
2018-02-08T00:15:15.374Z,81.94
2018-02-08T00:17:42.875Z,82.10
2018-02-08T00:20:10.350Z,81.76
2018-02-08T00:22:45.785Z,81.24
2018-02-08T00:25:13.259Z,81.45
2018-02-08T00:27:40.713Z,81.57
2018-02-08T00:30:08.162Z,81.84
2018-02-08T00:32:35.606Z,81.93
2018-02-08T00:35:03.051Z,81.73
2018-02-08T00:37:30.511Z,81.76
2018-02-08T00:39:57.973Z,81.96
2018-02-08T00:42:25.418Z,82.15
2018-02-08T00:44:52.866Z,81.71
2018-02-08T00:47:20.343Z,81.87
2018-02-08T00:49:47.787Z,81.97
2018-02-08T00:52:15.225Z,82.08
2018-02-08T00:54:42.671Z,82.07
2018-02-08T00:57:10.119Z,81.88
2018-02-08T00:59:37.558Z,81.48
2018-02-08T01:02:05.006Z,81.88
2018-02-08T01:04:32.467Z,81.37
2018-02-08T01:06:59.922Z,81.09
2018-02-08T01:09:27.371Z,81.81
2018-02-08T01:11:54.834Z,81.39
2018-02-08T01:14:22.808Z,81.62
2018-02-08T01:16:50.269Z,81.75
2018-02-08T01:19:17.731Z,81.71
2018-02-08T01:21:45.183Z,81.83
2018-02-08T01:24:12.630Z,81.81
2018-02-08T01:26:40.070Z,81.60
2018-02-08T01:29:07.529Z,81.78
2018-02-08T01:31:34.976Z,81.60
2018-02-08T01:34:02.440Z,81.73
2018-02-08T01:36:29.882Z,81.70
2018-02-08T01:38:57.332Z,81.85
2018-02-08T01:41:24.778Z,81.80
2018-02-08T01:43:52.271Z,82.09
2018-02-08T01:46:19.710Z,81.72
2018-02-08T01:48:47.160Z,81.81
2018-02-08T01:51:14.606Z,82.00
2018-02-08T01:53:42.042Z,81.71
2018-02-08T01:56:09.513Z,81.48
2018-02-08T01:58:36.957Z,81.26
2018-02-08T02:01:04.410Z,81.11
2018-02-08T02:03:31.849Z,81.29
2018-02-08T02:05:59.311Z,81.43
2018-02-08T02:08:26.745Z,81.50
2018-02-08T02:10:54.233Z,81.99
2018-02-08T02:13:21.669Z,81.85
2018-02-08T02:15:49.105Z,81.91
2018-02-08T02:18:16.555Z,81.64
2018-02-08T02:20:44.006Z,81.48
2018-02-08T02:23:11.449Z,81.59
2018-02-08T02:25:38.900Z,81.49
2018-02-08T02:28:06.345Z,81.21
2018-02-08T02:30:33.788Z,80.70
2018-02-08T02:33:01.242Z,81.43
2018-02-08T02:35:28.699Z,81.70
2018-02-08T02:37:56.165Z,82.00
2018-02-08T02:40:23.613Z,81.89
2018-02-08T02:42:51.067Z,81.45
2018-02-08T02:45:18.538Z,81.39
2018-02-08T02:47:45.983Z,81.22
2018-02-08T02:50:13.434Z,80.20
2018-02-08T02:52:40.871Z,80.78
2018-02-08T02:55:08.324Z,80.62
2018-02-08T02:57:35.758Z,80.65
2018-02-08T03:00:03.222Z,80.75
2018-02-08T03:02:30.662Z,80.77
2018-02-08T03:04:58.707Z,81.14
2018-02-08T03:07:26.149Z,81.00
2018-02-08T03:09:53.593Z,81.21
2018-02-08T03:12:21.053Z,81.44
2018-02-08T03:14:48.493Z,81.39
2018-02-08T03:17:15.928Z,81.10
2018-02-08T03:19:43.365Z,80.47
2018-02-08T03:22:10.822Z,79.90
2018-02-08T03:24:38.257Z,80.62
2018-02-08T03:27:05.714Z,80.69
2018-02-08T03:29:33.147Z,80.04
2018-02-08T03:32:00.608Z,79.95
2018-02-08T03:34:28.072Z,79.86
2018-02-08T03:36:55.524Z,79.20
2018-02-08T03:39:22.989Z,78.89
2018-02-08T03:41:50.454Z,79.42
2018-02-08T03:44:17.884Z,79.03
2018-02-08T03:46:45.330Z,79.38
2018-02-08T03:49:12.770Z,79.33
2018-02-08T03:51:40.247Z,80.21
2018-02-08T03:54:07.703Z,80.35
2018-02-08T03:56:35.132Z,80.46
2018-02-08T03:59:02.588Z,80.43
2018-02-08T04:01:30.043Z,79.45
2018-02-08T04:03:57.530Z,80.30
2018-02-08T04:06:24.966Z,80.06
2018-02-08T04:08:52.424Z,80.49
2018-02-08T04:11:19.859Z,79.97
2018-02-08T04:13:47.312Z,80.16
2018-02-08T04:16:14.756Z,80.21
2018-02-08T04:18:42.242Z,80.27
2018-02-08T04:21:09.691Z,79.80
2018-02-08T04:23:37.132Z,80.39
2018-02-08T04:26:04.582Z,79.30
2018-02-08T04:28:32.029Z,79.84
2018-02-08T04:30:59.479Z,79.89
2018-02-08T04:33:26.912Z,79.61
2018-02-08T04:35:54.375Z,79.49
2018-02-08T04:41:48.175Z,80.68
2018-02-08T04:44:27.450Z,80.62
2018-02-08T04:47:07.001Z,80.44
2018-02-08T04:49:34.562Z,80.51
2018-02-08T04:52:02.056Z,81.05
2018-02-08T04:54:29.515Z,81.64
2018-02-08T04:56:57.021Z,81.09
2018-02-08T04:59:24.516Z,80.79
2018-02-08T05:01:52.000Z,80.86
2018-02-08T05:04:19.580Z,80.29
2018-02-08T05:06:47.049Z,80.98
2018-02-08T05:09:14.524Z,81.18
2018-02-08T05:11:42.021Z,81.43
2018-02-08T05:14:09.492Z,81.49
2018-02-08T05:16:37.051Z,81.89
2018-02-08T05:19:04.616Z,81.59
2018-02-08T05:21:32.113Z,81.37
2018-02-08T05:23:59.616Z,80.87
2018-02-08T05:26:27.091Z,81.36
2018-02-08T05:28:54.749Z,81.20
2018-02-08T05:31:22.235Z,81.03
2018-02-08T05:33:49.728Z,81.58
2018-02-08T05:36:17.201Z,81.44
2018-02-08T05:38:44.684Z,89.71
2018-02-08T05:41:12.158Z,88.47
2018-02-08T05:43:39.659Z,77.28
2018-02-08T05:46:07.126Z,74.03
2018-02-08T05:48:34.668Z,71.62
2018-02-08T05:51:02.254Z,73.14
2018-02-08T05:53:29.734Z,71.86
2018-02-08T05:55:57.240Z,73.95
2018-02-08T05:58:24.714Z,75.65
2018-02-08T06:00:52.191Z,76.80
2018-02-08T06:03:19.679Z,78.29
2018-02-08T06:05:47.192Z,79.58
2018-02-08T06:08:14.674Z,80.45
2018-02-08T06:10:42.141Z,80.66
2018-02-08T06:13:09.624Z,81.31
2018-02-08T06:15:37.105Z,80.88
2018-02-08T06:18:04.593Z,81.27
2018-02-08T06:20:32.115Z,81.65
2018-02-08T06:22:59.592Z,81.82
2018-02-08T06:25:27.081Z,81.95
2018-02-08T06:27:54.628Z,82.18
2018-02-08T06:30:22.141Z,81.56
2018-02-08T06:32:49.664Z,81.52
2018-02-08T06:35:17.413Z,81.16
2018-02-08T06:37:44.890Z,81.14
2018-02-08T06:40:12.365Z,81.41
2018-02-08T06:42:39.840Z,81.73
2018-02-08T06:45:07.319Z,81.83
2018-02-08T06:47:34.793Z,81.48
2018-02-08T06:50:02.300Z,81.69
2018-02-08T06:52:29.767Z,81.65
2018-02-08T06:54:57.322Z,81.04
2018-02-08T06:57:24.783Z,81.00
2018-02-08T06:59:52.327Z,80.69
2018-02-08T07:02:19.799Z,80.60
2018-02-08T07:04:47.386Z,80.69
2018-02-08T07:07:14.949Z,81.26
2018-02-08T07:09:42.419Z,81.56
2018-02-08T07:12:10.014Z,81.54
2018-02-08T07:14:37.573Z,81.19
2018-02-08T07:17:05.144Z,81.00
2018-02-08T07:19:32.604Z,81.12
2018-02-08T07:22:00.077Z,81.23
2018-02-08T07:24:27.660Z,81.48
2018-02-08T07:26:55.227Z,80.91
2018-02-08T07:29:22.723Z,81.25
2018-02-08T07:31:50.263Z,81.33
2018-02-08T07:34:17.849Z,80.89
2018-02-08T07:36:45.452Z,80.95
2018-02-08T07:39:12.941Z,81.12
2018-02-08T07:41:40.441Z,80.61
2018-02-08T07:44:07.934Z,80.78
2018-02-08T07:46:35.537Z,80.93
2018-02-08T07:49:03.496Z,80.84
2018-02-08T07:51:30.973Z,80.72
2018-02-08T07:53:59.482Z,80.74
2018-02-08T07:56:27.042Z,80.27
2018-02-08T07:58:54.551Z,79.80
2018-02-08T08:01:22.054Z,79.28
2018-02-08T08:03:49.620Z,79.60
2018-02-08T08:06:17.083Z,79.68
2018-02-08T08:08:44.566Z,79.57
2018-02-08T08:11:12.053Z,79.35
2018-02-08T08:13:39.565Z,78.97
2018-02-08T08:16:07.060Z,79.40
2018-02-08T08:18:34.547Z,79.55
2018-02-08T08:21:02.041Z,79.37
2018-02-08T08:23:29.545Z,79.04
2018-02-08T08:25:57.033Z,78.42
2018-02-08T08:28:24.513Z,78.34
2018-02-08T08:30:51.999Z,78.30
2018-02-08T08:33:19.564Z,77.63
2018-02-08T08:35:47.182Z,75.96
2018-02-08T08:38:14.683Z,76.17
2018-02-08T08:40:42.202Z,76.43
2018-02-08T08:43:09.707Z,76.21
2018-02-08T08:45:37.247Z,76.85
2018-02-08T08:48:04.749Z,77.50
2018-02-08T08:50:32.229Z,77.68
2018-02-08T08:52:59.740Z,76.34
2018-02-08T08:55:27.241Z,77.01
2018-02-08T08:57:54.767Z,76.82
2018-02-08T09:00:22.255Z,75.77
2018-02-08T09:02:49.761Z,76.25
2018-02-08T09:05:17.263Z,75.36
2018-02-08T09:07:44.838Z,75.24
2018-02-08T09:10:12.363Z,76.44
2018-02-08T09:12:39.853Z,76.91
2018-02-08T09:15:07.374Z,75.97
2018-02-08T09:17:34.901Z,76.24
2018-02-08T09:20:02.410Z,74.62
2018-02-08T09:22:29.930Z,75.08
2018-02-08T09:24:58.278Z,74.75
2018-02-08T09:27:25.867Z,75.66
2018-02-08T09:29:53.460Z,75.70
2018-02-08T09:32:21.173Z,75.43
2018-02-08T09:34:48.750Z,74.59
2018-02-08T09:37:16.399Z,75.93
2018-02-08T09:39:43.903Z,76.44
2018-02-08T09:42:11.392Z,75.59
2018-02-08T09:44:39.000Z,75.07
2018-02-08T09:47:06.792Z,74.92
2018-02-08T09:49:34.285Z,75.69
2018-02-08T09:52:01.797Z,75.22
2018-02-08T09:54:29.655Z,74.80
2018-02-08T09:56:57.222Z,74.35
2018-02-08T09:59:25.713Z,73.04
2018-02-08T10:01:53.214Z,73.34
2018-02-08T10:04:20.683Z,72.22
2018-02-08T10:06:48.170Z,72.58
2018-02-08T10:09:15.641Z,72.28
2018-02-08T10:11:43.123Z,72.75
2018-02-08T10:14:10.597Z,71.58
2018-02-08T10:16:38.110Z,72.79
2018-02-08T10:19:05.577Z,72.83
2018-02-08T10:21:33.127Z,73.57
2018-02-08T10:24:00.680Z,72.66
2018-02-08T10:26:28.209Z,73.95
2018-02-08T10:28:55.773Z,72.27
2018-02-08T10:31:23.225Z,71.51
2018-02-08T10:33:50.722Z,72.00
2018-02-08T10:36:18.217Z,71.66
2018-02-08T10:38:45.738Z,70.49
2018-02-08T10:41:13.212Z,70.32
2018-02-08T10:43:40.798Z,70.71
2018-02-08T10:46:08.283Z,71.11
2018-02-08T10:48:35.745Z,70.85
2018-02-08T10:51:03.214Z,69.67
2018-02-08T10:53:30.683Z,70.27
2018-02-08T10:55:58.196Z,71.06
2018-02-08T10:58:25.716Z,69.26
2018-02-08T11:00:53.210Z,67.67
2018-02-08T11:03:20.707Z,68.22
2018-02-08T11:05:48.193Z,67.20
2018-02-08T11:08:15.657Z,66.68
2018-02-08T11:10:43.150Z,66.48
2018-02-08T11:13:10.617Z,66.85
2018-02-08T11:15:38.115Z,67.07
2018-02-08T11:18:05.591Z,67.07
2018-02-08T11:20:33.153Z,67.30
2018-02-08T11:23:00.650Z,67.40
2018-02-08T11:25:28.123Z,67.74
2018-02-08T11:27:55.614Z,67.78
2018-02-08T11:30:23.121Z,69.49
2018-02-08T11:32:50.619Z,70.65
2018-02-08T11:35:18.201Z,69.69
2018-02-08T11:37:45.703Z,67.23
2018-02-08T11:40:13.203Z,66.78
2018-02-08T11:42:40.744Z,66.85
2018-02-08T11:47:42.158Z,67.35
2018-02-08T11:50:09.645Z,65.24
2018-02-08T11:52:37.115Z,65.06
2018-02-08T11:55:04.622Z,64.98
2018-02-08T11:57:32.099Z,64.96
2018-02-08T11:59:59.611Z,67.79
2018-02-08T12:02:27.166Z,66.87
2018-02-08T12:04:54.658Z,66.23
2018-02-08T12:07:22.121Z,65.78
2018-02-08T12:09:49.713Z,67.69
2018-02-08T12:12:17.205Z,68.94
2018-02-08T12:14:44.689Z,67.38
2018-02-08T12:17:12.235Z,66.10
2018-02-08T12:19:39.722Z,66.62
2018-02-08T12:22:07.182Z,66.00
2018-02-08T12:24:34.664Z,66.31
2018-02-08T12:27:02.434Z,67.19
2018-02-08T12:29:29.930Z,67.08
2018-02-08T12:31:57.409Z,65.34
2018-02-08T12:34:24.880Z,65.86
2018-02-08T12:36:52.354Z,65.89
2018-02-08T12:39:19.824Z,64.23
2018-02-08T12:41:47.341Z,64.53
2018-02-08T12:44:14.801Z,65.65
2018-02-08T12:46:42.382Z,66.36
2018-02-08T12:49:09.952Z,66.53
2018-02-08T12:51:37.480Z,67.32
2018-02-08T12:54:04.938Z,66.87
2018-02-08T12:56:32.483Z,66.24
2018-02-08T12:58:59.953Z,66.86
2018-02-08T13:01:27.404Z,66.86
2018-02-08T13:03:54.879Z,67.03
2018-02-08T13:06:22.345Z,65.57
2018-02-08T13:08:49.928Z,65.28
2018-02-08T13:11:17.516Z,64.86
2018-02-08T13:13:44.986Z,65.45
2018-02-08T13:16:12.558Z,65.85
2018-02-08T13:18:40.013Z,66.30
2018-02-08T13:21:07.649Z,65.05
2018-02-08T13:23:35.128Z,65.90
2018-02-08T13:26:02.600Z,66.48
2018-02-08T13:28:30.091Z,63.70
2018-02-08T13:30:57.608Z,62.79
2018-02-08T13:33:25.090Z,63.49
2018-02-08T13:35:52.603Z,65.07
2018-02-08T13:38:20.113Z,63.08
2018-02-08T13:40:49.994Z,62.46
2018-02-08T13:43:17.504Z,61.84
2018-02-08T13:45:44.991Z,61.63
2018-02-08T13:48:14.940Z,61.51
2018-02-08T13:50:59.224Z,61.33
2018-02-08T13:56:31.470Z,61.77
2018-02-08T13:59:00.817Z,64.00
2018-02-08T14:01:32.064Z,61.46
2018-02-08T14:03:59.575Z,62.32
2018-02-08T14:06:27.069Z,62.87
2018-02-08T14:08:54.613Z,62.39
2018-02-08T14:11:22.107Z,63.74
2018-02-08T14:13:49.571Z,63.45
2018-02-08T14:16:17.050Z,63.96
2018-02-08T14:18:44.578Z,64.99
2018-02-08T14:21:12.050Z,64.14
2018-02-08T14:23:39.501Z,63.92
2018-02-08T14:26:06.985Z,64.29
2018-02-08T14:28:34.479Z,64.60
2018-02-08T14:31:02.095Z,64.15
2018-02-08T14:33:29.632Z,64.69
2018-02-08T14:35:57.200Z,65.42
2018-02-08T14:38:24.664Z,65.71
2018-02-08T14:40:52.243Z,64.78
2018-02-08T14:43:19.719Z,64.46
2018-02-08T14:45:47.193Z,65.28
2018-02-08T14:48:14.764Z,65.13
2018-02-08T14:50:42.233Z,65.12
2018-02-08T14:53:09.712Z,66.17
2018-02-08T14:55:37.266Z,65.94
2018-02-08T14:58:04.745Z,66.50
2018-02-08T15:00:32.216Z,65.75
2018-02-08T15:02:59.710Z,65.70
2018-02-08T15:05:27.186Z,66.04
2018-02-08T15:07:54.669Z,64.95
2018-02-08T15:10:22.129Z,65.05
2018-02-08T15:12:49.704Z,64.87
2018-02-08T15:15:17.234Z,64.91
2018-02-08T15:17:44.705Z,66.03
2018-02-08T15:20:12.168Z,66.76
2018-02-08T15:22:39.646Z,66.33
2018-02-08T15:25:07.140Z,66.61
2018-02-08T15:27:34.634Z,65.79
2018-02-08T15:30:04.933Z,65.48
2018-02-08T15:32:32.498Z,65.54
2018-02-08T15:35:00.012Z,63.68
2018-02-08T15:37:27.540Z,64.23
2018-02-08T15:39:54.991Z,64.07
2018-02-08T15:42:22.478Z,64.54
2018-02-08T15:44:49.950Z,64.84
2018-02-08T15:47:17.422Z,65.04
2018-02-08T15:49:44.928Z,64.97
2018-02-08T15:52:12.417Z,64.68
2018-02-08T15:54:39.888Z,65.42
2018-02-08T15:57:07.395Z,65.97
2018-02-08T15:59:34.929Z,66.20
2018-02-08T16:02:02.395Z,66.20
2018-02-08T16:04:29.909Z,65.42
2018-02-08T16:06:57.365Z,65.45
2018-02-08T16:09:24.853Z,66.12
2018-02-08T16:11:52.309Z,66.99
2018-02-08T16:14:19.895Z,67.75
2018-02-08T16:16:47.360Z,66.77
2018-02-08T16:19:14.863Z,66.24
2018-02-08T16:21:42.391Z,66.34
2018-02-08T16:24:09.873Z,66.55
2018-02-08T16:26:37.443Z,66.56
2018-02-08T16:29:05.041Z,67.40
2018-02-08T16:31:32.553Z,67.33
2018-02-08T16:34:00.083Z,66.82
2018-02-08T16:36:27.632Z,66.95
2018-02-08T16:38:55.237Z,66.54
2018-02-08T16:41:22.790Z,67.12
2018-02-08T16:43:50.258Z,66.80
2018-02-08T16:46:17.747Z,66.55
2018-02-08T16:48:45.229Z,65.81
2018-02-08T16:51:12.840Z,65.31
2018-02-08T16:53:40.314Z,64.99
2018-02-08T16:56:07.802Z,64.92
2018-02-08T16:58:35.369Z,64.91
2018-02-08T17:01:02.888Z,64.98
2018-02-08T17:03:30.388Z,65.47
2018-02-08T17:05:57.857Z,65.75
2018-02-08T17:08:25.365Z,65.75
2018-02-08T17:10:52.845Z,65.89
2018-02-08T17:13:20.336Z,66.16
2018-02-08T17:15:47.811Z,66.17
2018-02-08T17:18:15.322Z,65.54
2018-02-08T17:20:42.793Z,65.63
2018-02-08T17:23:10.278Z,65.55
2018-02-08T17:25:37.761Z,66.69
2018-02-08T17:28:05.311Z,66.03
2018-02-08T17:30:32.739Z,67.92
2018-02-08T17:33:00.295Z,67.99
2018-02-08T17:35:27.901Z,68.25
2018-02-08T17:37:55.400Z,69.01
2018-02-08T17:40:22.866Z,68.52
2018-02-08T17:42:50.340Z,67.83
2018-02-08T17:45:17.853Z,68.29
2018-02-08T17:47:45.337Z,68.02
2018-02-08T17:50:12.849Z,67.85
2018-02-08T17:52:40.414Z,67.04
2018-02-08T17:55:07.984Z,66.10
2018-02-08T17:57:35.470Z,65.78
2018-02-08T18:00:02.948Z,65.58
2018-02-08T18:02:30.426Z,65.45
2018-02-08T18:04:57.897Z,65.43
2018-02-08T18:07:25.393Z,65.63
2018-02-08T18:09:52.881Z,65.79
2018-02-08T18:12:20.392Z,71.29
2018-02-08T18:14:47.855Z,66.31
2018-02-08T18:17:15.620Z,65.07
2018-02-08T18:19:43.133Z,63.03
2018-02-08T18:22:11.880Z,62.59
2018-02-08T18:24:39.345Z,63.62
2018-02-08T18:27:06.841Z,63.64
2018-02-08T18:29:34.414Z,64.34
2018-02-08T18:32:01.886Z,64.94
2018-02-08T18:34:29.385Z,66.94
2018-02-08T18:36:57.026Z,66.63
2018-02-08T18:39:24.591Z,66.15
2018-02-08T18:41:52.055Z,67.86
2018-02-08T18:44:19.633Z,68.48
2018-02-08T18:46:47.232Z,68.89
2018-02-08T18:49:14.790Z,69.16
2018-02-08T18:51:42.361Z,68.78
2018-02-08T18:54:09.831Z,69.79
2018-02-08T18:56:37.309Z,70.08
2018-02-08T18:59:04.871Z,70.41
2018-02-08T19:01:32.366Z,70.74
2018-02-08T19:03:59.911Z,71.39
2018-02-08T19:06:27.500Z,71.86
2018-02-08T19:08:54.993Z,72.38
2018-02-08T19:11:22.498Z,72.22
2018-02-08T19:13:49.964Z,72.09
2018-02-08T19:16:17.438Z,70.80
2018-02-08T19:18:44.994Z,71.26
2018-02-08T19:21:12.475Z,70.87
2018-02-08T19:23:39.978Z,70.85
2018-02-08T19:26:07.449Z,70.33
2018-02-08T19:28:34.929Z,70.03
2018-02-08T19:31:02.501Z,69.94
2018-02-08T19:33:29.980Z,69.86
2018-02-08T19:35:57.472Z,69.62
2018-02-08T19:38:24.953Z,70.04
2018-02-08T19:40:52.420Z,69.46
2018-02-08T19:43:19.950Z,69.31
2018-02-08T19:45:47.460Z,69.52
2018-02-08T19:48:14.961Z,69.46
2018-02-08T19:50:42.463Z,69.08
2018-02-08T19:53:09.941Z,68.82
2018-02-08T19:55:37.426Z,69.06
2018-02-08T19:58:04.921Z,69.68
2018-02-08T20:00:32.421Z,70.71
2018-02-08T20:02:59.895Z,70.50
2018-02-08T20:05:27.372Z,70.57
2018-02-08T20:07:54.842Z,71.26
2018-02-08T20:10:22.313Z,70.77
2018-02-08T20:12:49.881Z,69.32
2018-02-08T20:15:33.189Z,69.04
2018-02-08T20:18:00.692Z,68.60
2018-02-08T20:20:28.278Z,69.38
2018-02-08T20:22:55.742Z,69.18
2018-02-08T20:25:28.871Z,69.18
2018-02-08T20:27:56.352Z,69.35
2018-02-08T20:30:23.843Z,69.89
2018-02-08T20:32:51.374Z,69.56
2018-02-08T20:35:18.848Z,69.50
2018-02-08T20:37:46.403Z,70.51
2018-02-08T20:40:23.036Z,71.19
2018-02-08T20:42:56.187Z,71.75
2018-02-08T20:45:23.653Z,70.61
2018-02-08T20:47:51.243Z,71.13
2018-02-08T20:50:18.751Z,71.49
2018-02-08T20:52:46.220Z,72.78
2018-02-08T20:55:13.682Z,72.66
2018-02-08T20:57:41.147Z,71.33
2018-02-08T21:00:08.621Z,70.43
2018-02-08T21:02:36.088Z,72.11
2018-02-08T21:05:03.615Z,72.30
2018-02-08T21:07:31.136Z,72.58
2018-02-08T21:09:58.631Z,71.23
2018-02-08T21:12:26.106Z,72.52
2018-02-08T21:14:53.613Z,72.95
2018-02-08T21:17:21.077Z,71.47
2018-02-08T21:19:48.563Z,71.88
2018-02-08T21:22:16.038Z,72.41
2018-02-08T21:24:43.529Z,73.14
2018-02-08T21:27:11.026Z,73.98
2018-02-08T21:29:38.541Z,74.79
2018-02-08T21:32:06.057Z,75.24
2018-02-08T21:34:33.554Z,74.73
2018-02-08T21:37:01.098Z,75.42
2018-02-08T21:39:28.613Z,75.21
2018-02-08T21:41:56.088Z,76.00
2018-02-08T21:44:23.584Z,75.83
2018-02-08T21:46:51.122Z,75.98
2018-02-08T21:49:18.840Z,76.71
2018-02-08T21:51:46.368Z,77.66
2018-02-08T21:54:13.893Z,77.49
2018-02-08T21:56:41.454Z,77.23
2018-02-08T21:59:08.933Z,77.63
2018-02-08T22:01:36.432Z,77.51
2018-02-08T22:04:03.905Z,78.65
2018-02-08T22:06:31.483Z,78.74
2018-02-08T22:11:32.779Z,78.87
2018-02-08T22:14:00.275Z,78.68
2018-02-08T22:16:27.791Z,78.91
2018-02-08T22:18:55.264Z,79.29
2018-02-08T22:21:22.754Z,79.25
2018-02-08T22:23:57.833Z,79.53
2018-02-08T22:26:25.318Z,79.77
2018-02-08T22:28:52.795Z,80.10
2018-02-08T22:31:20.285Z,79.46
2018-02-08T22:33:47.813Z,79.98
2018-02-08T22:36:15.399Z,80.79
2018-02-08T22:38:42.878Z,80.35
2018-02-08T22:41:10.355Z,80.46
2018-02-08T22:43:37.877Z,80.76
2018-02-08T22:46:05.379Z,80.70
2018-02-08T22:48:32.886Z,80.79
2018-02-08T22:51:00.480Z,80.93
2018-02-08T22:53:27.970Z,80.89
2018-02-08T22:55:55.472Z,81.28
2018-02-08T22:58:22.976Z,81.38
2018-02-08T23:00:50.458Z,81.30
2018-02-08T23:03:17.944Z,81.08
2018-02-08T23:05:45.417Z,81.28
2018-02-08T23:08:12.987Z,81.59
2018-02-08T23:10:40.562Z,81.84
2018-02-08T23:13:08.045Z,81.89
2018-02-08T23:15:35.547Z,81.84
2018-02-08T23:18:03.071Z,81.98
2018-02-08T23:20:30.693Z,82.20
2018-02-08T23:22:58.202Z,82.41
2018-02-08T23:25:25.671Z,82.21
2018-02-08T23:27:53.261Z,81.70
2018-02-08T23:30:20.773Z,82.16
2018-02-08T23:32:48.245Z,82.07
2018-02-08T23:35:15.748Z,82.30
2018-02-08T23:37:43.207Z,81.63
2018-02-08T23:40:10.697Z,81.45
2018-02-08T23:42:38.174Z,81.83
2018-02-08T23:45:05.670Z,82.59
2018-02-08T23:47:33.222Z,82.13
2018-02-08T23:50:00.712Z,82.32
2018-02-08T23:52:28.257Z,82.43
2018-02-08T23:54:55.933Z,82.07
2018-02-08T23:57:23.397Z,82.10
2018-02-08T23:59:50.917Z,82.18
